createdAt,value
2023-04-22T00:00:15.915Z,11.48
2023-04-22T00:00:38.703Z,11.45
2023-04-22T00:01:02.342Z,12.18
2023-04-22T00:01:25.150Z,11.32
2023-04-22T00:01:48.096Z,11.15
2023-04-22T00:02:14.782Z,11.45
2023-04-22T00:02:37.822Z,11.70
2023-04-22T00:03:02.110Z,12.32
2023-04-22T00:03:25.264Z,13.05
2023-04-22T00:03:48.352Z,12.35
2023-04-22T00:04:11.599Z,13.18
2023-04-22T00:04:35.054Z,13.38
2023-04-22T00:04:58.101Z,13.52
2023-04-22T00:05:21.488Z,12.70
2023-04-22T00:05:45.263Z,13.95
2023-04-22T00:06:08.512Z,12.55
2023-04-22T00:06:32.748Z,13.32
2023-04-22T00:06:55.550Z,13.40
2023-04-22T00:07:18.284Z,14.43
2023-04-22T00:07:41.072Z,13.90
2023-04-22T00:08:04.413Z,13.90
2023-04-22T00:08:27.260Z,13.80
2023-04-22T00:08:50.072Z,14.18
2023-04-22T00:09:13.172Z,13.55
2023-04-22T00:09:36.345Z,13.35
2023-04-22T00:09:59.345Z,12.70
2023-04-22T00:10:22.119Z,12.93
2023-04-22T00:10:44.924Z,12.98
2023-04-22T00:11:07.807Z,12.20
2023-04-22T00:11:30.747Z,12.07
2023-04-22T00:11:53.568Z,12.00
2023-04-22T00:12:16.296Z,11.98
2023-04-22T00:12:39.095Z,12.57
2023-04-22T00:13:01.905Z,12.77
2023-04-22T00:13:24.659Z,11.60
2023-04-22T00:13:47.420Z,12.32
2023-04-22T00:14:10.264Z,12.32
2023-04-22T00:14:33.032Z,12.18
2023-04-22T00:14:55.847Z,12.23
2023-04-22T00:15:21.816Z,12.32
2023-04-22T00:15:44.573Z,12.05
2023-04-22T00:16:07.766Z,11.75
2023-04-22T00:16:30.700Z,11.68
2023-04-22T00:16:53.447Z,11.70
2023-04-22T00:17:16.158Z,12.63
2023-04-22T00:17:39.088Z,13.15
2023-04-22T00:18:01.917Z,13.00
2023-04-22T00:18:24.766Z,12.38
2023-04-22T00:18:47.894Z,11.60
2023-04-22T00:19:10.628Z,11.57
2023-04-22T00:19:33.612Z,12.13
2023-04-22T00:19:56.391Z,12.13
2023-04-22T00:20:21.655Z,12.25
2023-04-22T00:20:44.453Z,12.52
2023-04-22T00:21:08.093Z,12.85
2023-04-22T00:21:32.984Z,12.25
2023-04-22T00:21:56.340Z,12.10
2023-04-22T00:22:19.109Z,11.88
2023-04-22T00:22:41.842Z,11.98
2023-04-22T00:23:04.596Z,12.02
2023-04-22T00:23:27.372Z,11.90
2023-04-22T00:23:50.251Z,11.23
2023-04-22T00:24:13.040Z,11.50
2023-04-22T00:24:35.813Z,11.95
2023-04-22T00:24:58.640Z,12.25
2023-04-22T00:25:21.472Z,12.02
2023-04-22T00:25:44.265Z,11.82
2023-04-22T00:26:07.052Z,12.25
2023-04-22T00:26:29.966Z,12.85
2023-04-22T00:26:52.704Z,13.18
2023-04-22T00:27:15.456Z,12.95
2023-04-22T00:27:38.300Z,12.50
2023-04-22T00:28:01.127Z,12.07
2023-04-22T00:28:23.961Z,11.45
2023-04-22T00:28:46.825Z,11.70
2023-04-22T00:29:09.656Z,11.82
2023-04-22T00:29:32.594Z,11.90
2023-04-22T00:29:55.265Z,12.70
2023-04-22T00:30:18.069Z,12.02
2023-04-22T00:30:40.903Z,11.68
2023-04-22T00:31:04.957Z,12.15
2023-04-22T00:31:27.971Z,12.80
2023-04-22T00:31:50.912Z,12.23
2023-04-22T00:32:13.950Z,12.23
2023-04-22T00:32:36.756Z,12.15
2023-04-22T00:32:59.646Z,12.38
2023-04-22T00:33:22.450Z,12.85
2023-04-22T00:33:45.207Z,12.68
2023-04-22T00:34:08.107Z,12.80
2023-04-22T00:34:30.886Z,12.90
2023-04-22T00:34:53.588Z,12.93
2023-04-22T00:35:16.524Z,13.18
2023-04-22T00:35:39.387Z,12.82
2023-04-22T00:36:02.100Z,12.63
2023-04-22T00:36:24.872Z,12.48
2023-04-22T00:36:49.001Z,12.52
2023-04-22T00:37:11.774Z,12.85
2023-04-22T00:37:35.242Z,12.48
2023-04-22T00:37:58.086Z,12.45
2023-04-22T00:38:21.313Z,12.40
2023-04-22T00:38:46.513Z,11.82
2023-04-22T00:39:09.649Z,11.35
2023-04-22T00:39:32.419Z,11.60
2023-04-22T00:39:55.138Z,11.48
2023-04-22T00:40:18.063Z,11.88
2023-04-22T00:40:41.983Z,11.50
2023-04-22T00:41:04.848Z,12.18
2023-04-22T00:41:28.151Z,12.48
2023-04-22T00:41:50.987Z,12.48
2023-04-22T00:42:13.840Z,12.18
2023-04-22T00:42:37.435Z,12.45
2023-04-22T00:43:00.654Z,12.80
2023-04-22T00:43:23.395Z,12.50
2023-04-22T00:43:46.219Z,12.10
2023-04-22T00:44:10.145Z,11.98
2023-04-22T00:44:33.106Z,11.60
2023-04-22T00:44:55.898Z,11.75
2023-04-22T00:45:19.406Z,11.18
2023-04-22T00:45:42.202Z,11.50
2023-04-22T00:46:04.978Z,10.90
2023-04-22T00:46:27.813Z,11.82
2023-04-22T00:46:50.632Z,11.07
2023-04-22T00:47:13.536Z,11.68
2023-04-22T00:47:37.203Z,12.07
2023-04-22T00:48:00.326Z,11.88
2023-04-22T00:48:23.338Z,11.95
2023-04-22T00:48:46.169Z,11.82
2023-04-22T00:49:08.942Z,12.25
2023-04-22T00:49:31.781Z,12.55
2023-04-22T00:49:55.391Z,12.35
2023-04-22T00:50:18.304Z,11.95
2023-04-22T00:50:41.110Z,12.32
2023-04-22T00:51:04.191Z,12.20
2023-04-22T00:51:28.210Z,12.07
2023-04-22T00:51:52.412Z,12.68
2023-04-22T00:52:15.206Z,13.10
2023-04-22T00:52:38.021Z,12.55
2023-04-22T00:53:00.879Z,12.75
2023-04-22T00:53:23.712Z,13.25
2023-04-22T00:53:46.516Z,13.15
2023-04-22T00:54:09.341Z,13.38
2023-04-22T00:54:32.178Z,13.32
2023-04-22T00:54:55.027Z,12.77
2023-04-22T00:55:17.996Z,12.77
2023-04-22T00:55:40.924Z,12.88
2023-04-22T00:56:03.925Z,13.50
2023-04-22T00:56:27.605Z,13.10
2023-04-22T00:56:50.424Z,12.73
2023-04-22T00:57:13.207Z,13.68
2023-04-22T00:57:36.148Z,13.82
2023-04-22T00:57:59.009Z,13.13
2023-04-22T00:58:21.951Z,13.02
2023-04-22T00:58:44.701Z,13.32
2023-04-22T00:59:07.966Z,13.60
2023-04-22T00:59:30.730Z,13.38
2023-04-22T00:59:53.577Z,12.98
2023-04-22T01:00:16.753Z,12.85
2023-04-22T01:00:39.660Z,13.60
2023-04-22T01:01:02.535Z,13.20
2023-04-22T01:01:25.760Z,13.02
2023-04-22T01:01:48.790Z,13.02
2023-04-22T01:02:12.096Z,12.85
2023-04-22T01:02:35.051Z,13.50
2023-04-22T01:02:58.567Z,14.10
2023-04-22T01:03:22.366Z,14.32
2023-04-22T01:03:45.620Z,13.63
2023-04-22T01:04:10.952Z,13.75
2023-04-22T01:04:33.920Z,13.18
2023-04-22T01:04:56.775Z,13.18
2023-04-22T01:05:20.236Z,13.35
2023-04-22T01:05:43.023Z,12.77
2023-04-22T01:06:06.112Z,12.55
2023-04-22T01:06:29.140Z,13.13
2023-04-22T01:06:53.950Z,13.43
2023-04-22T01:07:16.669Z,13.40
2023-04-22T01:07:39.460Z,13.68
2023-04-22T01:08:02.539Z,13.50
2023-04-22T01:08:28.586Z,13.20
2023-04-22T01:08:51.401Z,12.93
2023-04-22T01:09:14.140Z,13.23
2023-04-22T01:09:36.848Z,13.07
2023-04-22T01:09:59.592Z,12.70
2023-04-22T01:10:22.418Z,12.48
2023-04-22T01:10:45.329Z,12.60
2023-04-22T01:11:08.069Z,12.65
2023-04-22T01:11:30.787Z,12.75
2023-04-22T01:11:53.521Z,12.82
2023-04-22T01:12:16.180Z,13.23
2023-04-22T01:12:38.916Z,12.90
2023-04-22T01:13:01.627Z,12.43
2023-04-22T01:13:24.536Z,12.68
2023-04-22T01:13:47.320Z,12.10
2023-04-22T01:14:10.091Z,12.55
2023-04-22T01:14:32.828Z,12.55
2023-04-22T01:14:55.989Z,12.48
2023-04-22T01:15:19.247Z,12.27
2023-04-22T01:15:42.040Z,12.45
2023-04-22T01:16:06.403Z,12.30
2023-04-22T01:16:29.764Z,12.27
2023-04-22T01:16:54.332Z,12.75
2023-04-22T01:17:19.451Z,12.57
2023-04-22T01:17:42.379Z,11.90
2023-04-22T01:18:05.445Z,12.27
2023-04-22T01:18:28.618Z,12.07
2023-04-22T01:18:53.307Z,12.38
2023-04-22T01:19:16.059Z,12.23
2023-04-22T01:19:39.054Z,12.65
2023-04-22T01:20:04.522Z,12.45
2023-04-22T01:20:29.727Z,12.30
2023-04-22T01:20:53.327Z,11.90
2023-04-22T01:21:17.366Z,11.73
2023-04-22T01:21:41.015Z,10.85
2023-04-22T01:22:05.261Z,10.98
2023-04-22T01:22:28.030Z,11.07
2023-04-22T01:22:50.963Z,11.32
2023-04-22T01:23:17.812Z,10.95
2023-04-22T01:23:40.672Z,11.65
2023-04-22T01:24:03.378Z,11.05
2023-04-22T01:24:26.781Z,11.43
2023-04-22T01:24:49.731Z,11.27
2023-04-22T01:25:12.548Z,10.98
2023-04-22T01:25:35.306Z,11.35
2023-04-22T01:25:58.084Z,11.50
2023-04-22T01:26:20.950Z,11.30
2023-04-22T01:26:43.705Z,11.35
2023-04-22T01:27:06.474Z,11.38
2023-04-22T01:27:29.294Z,11.50
2023-04-22T01:27:52.192Z,12.00
2023-04-22T01:28:15.140Z,11.40
2023-04-22T01:28:38.020Z,11.60
2023-04-22T01:29:02.838Z,11.65
2023-04-22T01:29:25.715Z,11.77
2023-04-22T01:29:48.416Z,11.50
2023-04-22T01:30:12.116Z,11.75
2023-04-22T01:30:34.869Z,11.90
2023-04-22T01:30:57.571Z,11.55
2023-04-22T01:31:20.327Z,12.05
2023-04-22T01:31:43.170Z,11.52
2023-04-22T01:32:06.205Z,11.10
2023-04-22T01:32:31.119Z,11.43
2023-04-22T01:32:54.096Z,11.80
2023-04-22T01:33:17.100Z,11.95
2023-04-22T01:33:40.115Z,11.50
2023-04-22T01:34:02.982Z,11.38
2023-04-22T01:34:25.828Z,11.45
2023-04-22T01:34:48.666Z,11.18
2023-04-22T01:35:11.565Z,11.32
2023-04-22T01:35:37.324Z,10.63
2023-04-22T01:36:00.845Z,11.02
2023-04-22T01:36:23.695Z,10.80
2023-04-22T01:36:46.567Z,10.80
2023-04-22T01:37:09.456Z,10.68
2023-04-22T01:37:32.340Z,11.25
2023-04-22T01:37:55.077Z,11.45
2023-04-22T01:38:19.288Z,11.65
2023-04-22T01:38:42.131Z,10.82
2023-04-22T01:39:05.120Z,10.57
2023-04-22T01:39:28.008Z,11.40
2023-04-22T01:39:50.838Z,11.05
2023-04-22T01:40:13.830Z,10.90
2023-04-22T01:40:36.711Z,11.02
2023-04-22T01:40:59.536Z,10.55
2023-04-22T01:41:22.575Z,10.88
2023-04-22T01:41:45.475Z,10.98
2023-04-22T01:42:08.208Z,11.20
2023-04-22T01:42:31.239Z,11.25
2023-04-22T01:42:54.096Z,10.93
2023-04-22T01:43:16.919Z,10.90
2023-04-22T01:43:40.680Z,11.10
2023-04-22T01:44:04.039Z,11.18
2023-04-22T01:44:27.120Z,11.50
2023-04-22T01:44:49.960Z,12.10
2023-04-22T01:45:13.504Z,12.07
2023-04-22T01:45:36.294Z,11.73
2023-04-22T01:46:00.556Z,11.50
2023-04-22T01:46:23.518Z,11.70
2023-04-22T01:46:46.345Z,11.75
2023-04-22T01:47:09.083Z,12.05
2023-04-22T01:47:31.915Z,11.68
2023-04-22T01:47:54.879Z,12.13
2023-04-22T01:48:18.982Z,11.90
2023-04-22T01:48:41.960Z,11.25
2023-04-22T01:49:04.850Z,11.70
2023-04-22T01:49:27.615Z,12.23
2023-04-22T01:49:50.354Z,12.23
2023-04-22T01:50:13.064Z,12.05
2023-04-22T01:50:35.785Z,12.15
2023-04-22T01:50:58.618Z,11.90
2023-04-22T01:51:21.396Z,12.23
2023-04-22T01:51:44.099Z,12.55
2023-04-22T01:52:06.831Z,12.07
2023-04-22T01:52:29.681Z,12.38
2023-04-22T01:52:52.407Z,12.05
2023-04-22T01:53:15.251Z,12.60
2023-04-22T01:53:39.618Z,11.80
2023-04-22T01:54:04.177Z,11.50
2023-04-22T01:54:27.093Z,12.25
2023-04-22T01:54:49.828Z,11.10
2023-04-22T01:55:12.803Z,10.43
2023-04-22T01:55:38.311Z,10.48
2023-04-22T01:56:01.158Z,10.88
2023-04-22T01:56:23.973Z,11.65
2023-04-22T01:56:50.906Z,11.02
2023-04-22T01:57:14.483Z,10.73
2023-04-22T01:57:37.400Z,10.70
2023-04-22T01:58:00.259Z,10.27
2023-04-22T01:58:23.121Z,11.13
2023-04-22T01:58:45.962Z,11.43
2023-04-22T01:59:09.248Z,10.32
2023-04-22T01:59:32.087Z,10.18
2023-04-22T01:59:54.905Z,10.05
2023-04-22T02:00:18.183Z,10.63
2023-04-22T02:00:40.918Z,10.43
2023-04-22T02:01:03.776Z,10.27
2023-04-22T02:01:26.725Z,10.50
2023-04-22T02:01:49.647Z,10.40
2023-04-22T02:02:12.839Z,10.55
2023-04-22T02:02:35.813Z,10.00
2023-04-22T02:02:58.803Z,9.55
2023-04-22T02:03:21.835Z,9.32
2023-04-22T02:03:45.005Z,9.85
2023-04-22T02:04:08.092Z,9.57
2023-04-22T02:04:30.948Z,9.13
2023-04-22T02:04:53.904Z,9.50
2023-04-22T02:05:17.880Z,9.57
2023-04-22T02:05:40.585Z,9.50
2023-04-22T02:06:03.472Z,9.93
2023-04-22T02:06:27.617Z,9.25
2023-04-22T02:06:50.446Z,8.70
2023-04-22T02:07:13.212Z,9.18
2023-04-22T02:07:36.577Z,8.73
2023-04-22T02:07:59.381Z,9.52
2023-04-22T02:08:22.083Z,9.43
2023-04-22T02:08:46.602Z,9.48
2023-04-22T02:09:09.335Z,9.02
2023-04-22T02:09:33.325Z,9.15
2023-04-22T02:09:56.171Z,9.27
2023-04-22T02:10:19.002Z,9.05
2023-04-22T02:10:41.813Z,9.88
2023-04-22T02:11:04.846Z,9.65
2023-04-22T02:11:27.574Z,8.80
2023-04-22T02:11:50.499Z,8.90
2023-04-22T02:12:15.622Z,8.63
2023-04-22T02:12:38.357Z,9.07
2023-04-22T02:13:03.235Z,9.32
2023-04-22T02:13:26.012Z,9.63
2023-04-22T02:13:51.527Z,9.63
2023-04-22T02:14:14.292Z,9.25
2023-04-22T02:14:37.022Z,9.00
2023-04-22T02:14:59.716Z,9.60
2023-04-22T02:15:23.107Z,9.20
2023-04-22T02:15:46.128Z,9.18
2023-04-22T02:16:09.533Z,9.38
2023-04-22T02:16:35.452Z,9.38
2023-04-22T02:16:58.306Z,9.30
2023-04-22T02:17:22.452Z,9.70
2023-04-22T02:17:45.227Z,10.15
2023-04-22T02:18:08.502Z,10.07
2023-04-22T02:18:31.206Z,9.68
2023-04-22T02:18:53.977Z,10.27
2023-04-22T02:19:16.702Z,9.73
2023-04-22T02:19:39.545Z,9.90
2023-04-22T02:20:02.951Z,9.82
2023-04-22T02:20:25.784Z,10.25
2023-04-22T02:20:48.899Z,9.80
2023-04-22T02:21:11.661Z,10.07
2023-04-22T02:21:34.388Z,10.13
2023-04-22T02:21:57.293Z,10.52
2023-04-22T02:22:20.081Z,10.55
2023-04-22T02:22:43.052Z,10.52
2023-04-22T02:23:05.891Z,11.00
2023-04-22T02:23:28.783Z,11.05
2023-04-22T02:23:53.040Z,11.18
2023-04-22T02:24:15.886Z,10.70
2023-04-22T02:24:38.683Z,11.30
2023-04-22T02:25:01.983Z,10.80
2023-04-22T02:25:24.799Z,10.82
2023-04-22T02:25:50.627Z,11.02
2023-04-22T02:26:13.360Z,10.98
2023-04-22T02:26:36.151Z,11.10
2023-04-22T02:26:58.971Z,11.23
2023-04-22T02:27:22.112Z,10.95
2023-04-22T02:27:44.950Z,11.15
2023-04-22T02:28:07.790Z,11.20
2023-04-22T02:28:30.565Z,10.98
2023-04-22T02:28:53.324Z,10.55
2023-04-22T02:29:16.436Z,10.20
2023-04-22T02:29:39.340Z,10.13
2023-04-22T02:30:02.623Z,10.25
2023-04-22T02:30:25.588Z,10.77
2023-04-22T02:30:48.432Z,10.52
2023-04-22T02:31:11.261Z,10.30
2023-04-22T02:31:34.164Z,10.75
2023-04-22T02:31:57.678Z,10.57
2023-04-22T02:32:20.774Z,10.77
2023-04-22T02:32:43.635Z,10.48
2023-04-22T02:33:06.467Z,10.55
2023-04-22T02:33:29.381Z,10.15
2023-04-22T02:33:52.196Z,10.07
2023-04-22T02:34:17.199Z,10.38
2023-04-22T02:34:39.918Z,10.73
2023-04-22T02:35:03.253Z,10.77
2023-04-22T02:35:26.098Z,10.80
2023-04-22T02:35:48.942Z,10.65
2023-04-22T02:36:11.715Z,10.82
2023-04-22T02:36:35.137Z,10.25
2023-04-22T02:37:01.095Z,10.23
2023-04-22T02:37:24.010Z,10.32
2023-04-22T02:37:46.905Z,10.02
2023-04-22T02:38:10.316Z,9.95
2023-04-22T02:38:33.139Z,10.25
2023-04-22T02:38:57.296Z,9.90
2023-04-22T02:39:22.760Z,9.80
2023-04-22T02:39:45.578Z,10.50
2023-04-22T02:40:09.461Z,10.35
2023-04-22T02:40:32.235Z,10.77
2023-04-22T02:40:55.052Z,10.27
2023-04-22T02:41:20.272Z,10.35
2023-04-22T02:41:43.104Z,9.60
2023-04-22T02:42:06.080Z,9.75
2023-04-22T02:42:28.826Z,9.77
2023-04-22T02:42:51.962Z,10.23
2023-04-22T02:43:14.707Z,10.40
2023-04-22T02:43:37.663Z,10.27
2023-04-22T02:44:00.538Z,10.07
2023-04-22T02:44:23.312Z,10.30
2023-04-22T02:44:46.090Z,10.32
2023-04-22T02:45:10.202Z,9.98
2023-04-22T02:45:33.051Z,9.82
2023-04-22T02:45:56.390Z,9.75
2023-04-22T02:46:19.173Z,9.82
2023-04-22T02:46:42.108Z,9.32
2023-04-22T02:47:06.376Z,9.88
2023-04-22T02:47:29.409Z,10.20
2023-04-22T02:47:52.322Z,9.70
2023-04-22T02:48:17.386Z,9.85
2023-04-22T02:48:40.241Z,10.18
2023-04-22T02:49:03.086Z,10.40
2023-04-22T02:49:25.935Z,9.80
2023-04-22T02:49:48.742Z,9.10
2023-04-22T02:50:11.709Z,9.65
2023-04-22T02:50:34.503Z,9.80
2023-04-22T02:50:57.265Z,9.95
2023-04-22T02:51:20.540Z,10.10
2023-04-22T02:51:43.379Z,9.70
2023-04-22T02:52:06.280Z,9.57
2023-04-22T02:52:29.096Z,9.57
2023-04-22T02:52:52.401Z,9.43
2023-04-22T02:53:15.387Z,10.32
2023-04-22T02:53:38.179Z,9.95
2023-04-22T02:54:02.599Z,10.25
2023-04-22T02:54:25.480Z,9.73
2023-04-22T02:54:48.258Z,9.57
2023-04-22T02:55:11.208Z,9.50
2023-04-22T02:55:33.971Z,10.02
2023-04-22T02:55:59.134Z,9.82
2023-04-22T02:56:22.118Z,10.05
2023-04-22T02:56:44.954Z,10.10
2023-04-22T02:57:08.035Z,9.63
2023-04-22T02:57:31.075Z,10.25
2023-04-22T02:57:53.817Z,10.70
2023-04-22T02:58:16.977Z,9.95
2023-04-22T02:58:39.887Z,10.77
2023-04-22T02:59:02.630Z,10.20
2023-04-22T02:59:25.467Z,9.93
2023-04-22T02:59:48.341Z,10.00
2023-04-22T03:00:11.694Z,10.15
2023-04-22T03:00:34.577Z,9.90
2023-04-22T03:00:58.170Z,9.82
2023-04-22T03:01:21.177Z,9.93
2023-04-22T03:01:43.936Z,9.55
2023-04-22T03:02:07.139Z,9.88
2023-04-22T03:02:30.258Z,9.70
2023-04-22T03:02:53.912Z,10.02
2023-04-22T03:03:17.087Z,9.63
2023-04-22T03:03:40.356Z,10.02
2023-04-22T03:04:03.672Z,9.82
2023-04-22T03:04:27.079Z,9.50
2023-04-22T03:04:52.316Z,9.63
2023-04-22T03:05:15.152Z,9.43
2023-04-22T03:05:37.916Z,9.75
2023-04-22T03:06:00.822Z,9.95
2023-04-22T03:06:23.622Z,9.82
2023-04-22T03:06:46.557Z,9.60
2023-04-22T03:07:09.407Z,10.15
2023-04-22T03:07:32.201Z,9.85
2023-04-22T03:07:55.053Z,9.52
2023-04-22T03:08:17.946Z,9.55
2023-04-22T03:08:40.796Z,9.98
2023-04-22T03:09:08.679Z,10.25
2023-04-22T03:09:31.545Z,9.75
2023-04-22T03:09:56.053Z,10.27
2023-04-22T03:10:19.210Z,10.23
2023-04-22T03:10:42.187Z,10.05
2023-04-22T03:11:05.743Z,10.55
2023-04-22T03:11:28.509Z,10.98
2023-04-22T03:11:51.258Z,10.30
2023-04-22T03:12:13.981Z,10.20
2023-04-22T03:12:36.741Z,10.05
2023-04-22T03:12:59.605Z,10.20
2023-04-22T03:13:22.427Z,9.80
2023-04-22T03:13:45.380Z,10.10
2023-04-22T03:14:08.281Z,10.93
2023-04-22T03:14:33.455Z,9.77
2023-04-22T03:14:56.175Z,10.05
2023-04-22T03:15:21.798Z,9.52
2023-04-22T03:15:45.024Z,9.88
2023-04-22T03:16:07.890Z,9.77
2023-04-22T03:16:30.838Z,9.43
2023-04-22T03:16:53.818Z,9.88
2023-04-22T03:17:16.987Z,9.52
2023-04-22T03:17:39.791Z,9.70
2023-04-22T03:18:05.053Z,9.43
2023-04-22T03:18:28.012Z,10.13
2023-04-22T03:18:51.046Z,10.20
2023-04-22T03:19:13.787Z,9.85
2023-04-22T03:19:36.893Z,9.52
2023-04-22T03:20:00.043Z,10.20
2023-04-22T03:20:22.949Z,10.27
2023-04-22T03:20:45.753Z,9.95
2023-04-22T03:21:08.756Z,10.35
2023-04-22T03:21:32.472Z,9.82
2023-04-22T03:21:56.700Z,9.93
2023-04-22T03:22:19.597Z,10.07
2023-04-22T03:22:42.420Z,9.88
2023-04-22T03:23:07.119Z,10.27
2023-04-22T03:23:29.923Z,9.82
2023-04-22T03:23:52.737Z,10.07
2023-04-22T03:24:17.032Z,9.70
2023-04-22T03:24:39.962Z,9.75
2023-04-22T03:25:06.032Z,10.00
2023-04-22T03:25:28.872Z,10.27
2023-04-22T03:25:52.221Z,10.32
2023-04-22T03:26:15.068Z,9.60
2023-04-22T03:26:40.527Z,8.98
2023-04-22T03:27:04.261Z,9.65
2023-04-22T03:27:27.211Z,9.35
2023-04-22T03:27:50.047Z,9.00
2023-04-22T03:28:15.240Z,9.63
2023-04-22T03:28:38.153Z,10.43
2023-04-22T03:29:01.005Z,10.05
2023-04-22T03:29:26.330Z,9.45
2023-04-22T03:29:49.177Z,9.27
2023-04-22T03:30:12.377Z,9.50
2023-04-22T03:30:35.164Z,9.80
2023-04-22T03:30:58.044Z,9.88
2023-04-22T03:31:23.500Z,9.85
2023-04-22T03:31:46.338Z,9.75
2023-04-22T03:32:12.352Z,9.73
2023-04-22T03:32:35.126Z,10.00
2023-04-22T03:32:58.470Z,10.20
2023-04-22T03:33:21.415Z,9.95
2023-04-22T03:33:44.262Z,9.48
2023-04-22T03:34:06.979Z,9.45
2023-04-22T03:34:29.754Z,10.00
2023-04-22T03:34:55.406Z,9.75
2023-04-22T03:35:18.449Z,9.55
2023-04-22T03:35:43.703Z,9.88
2023-04-22T03:36:07.238Z,9.68
2023-04-22T03:36:30.054Z,9.65
2023-04-22T03:36:52.986Z,9.65
2023-04-22T03:37:16.334Z,10.05
2023-04-22T03:37:39.317Z,9.85
2023-04-22T03:38:02.090Z,9.88
2023-04-22T03:38:27.326Z,9.50
2023-04-22T03:38:50.368Z,9.25
2023-04-22T03:39:13.464Z,9.20
2023-04-22T03:39:37.934Z,9.88
2023-04-22T03:40:01.288Z,9.40
2023-04-22T03:40:26.312Z,9.27
2023-04-22T03:40:51.009Z,9.35
2023-04-22T03:41:14.498Z,9.55
2023-04-22T03:41:37.251Z,9.18
2023-04-22T03:42:02.825Z,9.57
2023-04-22T03:42:25.886Z,9.85
2023-04-22T03:42:48.808Z,9.70
2023-04-22T03:43:11.964Z,9.43
2023-04-22T03:43:34.750Z,9.82
2023-04-22T03:44:00.340Z,9.80
2023-04-22T03:44:24.396Z,9.70
2023-04-22T03:44:49.551Z,9.60
2023-04-22T03:45:12.496Z,9.95
2023-04-22T03:45:35.575Z,9.80
2023-04-22T03:45:59.490Z,10.23
2023-04-22T03:46:22.380Z,10.27
2023-04-22T03:46:45.258Z,9.70
2023-04-22T03:47:08.774Z,9.80
2023-04-22T03:47:32.232Z,9.48
2023-04-22T03:47:55.143Z,8.63
2023-04-22T03:48:20.388Z,8.55
2023-04-22T03:48:43.126Z,9.25
2023-04-22T03:49:09.068Z,9.40
2023-04-22T03:49:31.917Z,9.20
2023-04-22T03:49:54.759Z,9.55
2023-04-22T03:50:17.630Z,9.55
2023-04-22T03:50:42.734Z,9.77
2023-04-22T03:51:05.766Z,9.73
2023-04-22T03:51:29.152Z,9.40
2023-04-22T03:51:51.898Z,9.35
2023-04-22T03:52:15.298Z,9.25
2023-04-22T03:52:38.054Z,9.50
2023-04-22T03:53:03.240Z,9.55
2023-04-22T03:53:26.024Z,9.68
2023-04-22T03:53:48.867Z,9.50
2023-04-22T03:54:11.695Z,9.07
2023-04-22T03:54:34.465Z,8.98
2023-04-22T03:55:01.138Z,9.60
2023-04-22T03:55:23.964Z,9.70
2023-04-22T03:55:46.791Z,9.50
2023-04-22T03:56:09.498Z,9.57
2023-04-22T03:56:32.418Z,9.48
2023-04-22T03:56:55.313Z,9.93
2023-04-22T03:57:18.249Z,9.70
2023-04-22T03:57:41.095Z,8.82
2023-04-22T03:58:04.043Z,9.60
2023-04-22T03:58:29.264Z,9.77
2023-04-22T03:58:52.132Z,10.02
2023-04-22T03:59:17.292Z,9.88
2023-04-22T03:59:40.425Z,9.52
2023-04-22T04:00:03.584Z,9.73
2023-04-22T04:00:26.513Z,9.35
2023-04-22T04:00:49.273Z,9.50
2023-04-22T04:01:12.222Z,9.50
2023-04-22T04:01:36.530Z,9.45
2023-04-22T04:01:59.584Z,9.10
2023-04-22T04:02:22.382Z,9.35
2023-04-22T04:02:45.727Z,8.90
2023-04-22T04:03:12.238Z,9.10
2023-04-22T04:03:35.753Z,9.35
2023-04-22T04:03:59.162Z,9.38
2023-04-22T04:04:23.973Z,9.35
2023-04-22T04:04:47.649Z,9.40
2023-04-22T04:05:11.748Z,9.30
2023-04-22T04:05:34.610Z,9.35
2023-04-22T04:05:57.451Z,9.50
2023-04-22T04:06:20.348Z,9.63
2023-04-22T04:06:43.056Z,9.60
2023-04-22T04:07:06.933Z,9.90
2023-04-22T04:07:29.767Z,9.10
2023-04-22T04:07:52.530Z,9.38
2023-04-22T04:08:16.013Z,9.75
2023-04-22T04:08:38.817Z,9.30
2023-04-22T04:09:02.019Z,9.45
2023-04-22T04:09:24.908Z,9.18
2023-04-22T04:09:50.244Z,9.00
2023-04-22T04:10:14.705Z,8.93
2023-04-22T04:10:37.742Z,9.18
2023-04-22T04:11:01.514Z,9.52
2023-04-22T04:11:24.357Z,8.88
2023-04-22T04:11:47.138Z,8.85
2023-04-22T04:12:12.172Z,8.98
2023-04-22T04:12:35.019Z,9.15
2023-04-22T04:13:00.906Z,8.95
2023-04-22T04:13:23.729Z,8.88
2023-04-22T04:13:48.879Z,8.95
2023-04-22T04:14:11.773Z,8.50
2023-04-22T04:14:34.506Z,8.85
2023-04-22T04:14:57.293Z,8.82
2023-04-22T04:15:21.524Z,8.30
2023-04-22T04:15:44.938Z,8.85
2023-04-22T04:16:08.012Z,9.25
2023-04-22T04:16:31.057Z,8.63
2023-04-22T04:16:53.931Z,9.30
2023-04-22T04:17:16.768Z,8.48
2023-04-22T04:17:40.148Z,8.70
2023-04-22T04:18:05.375Z,8.65
2023-04-22T04:18:29.739Z,8.88
2023-04-22T04:18:52.610Z,9.05
2023-04-22T04:19:15.386Z,8.85
2023-04-22T04:19:38.657Z,9.00
2023-04-22T04:20:01.927Z,9.05
2023-04-22T04:20:24.881Z,9.20
2023-04-22T04:20:47.610Z,8.70
2023-04-22T04:21:10.482Z,8.70
2023-04-22T04:21:33.979Z,9.02
2023-04-22T04:21:57.263Z,8.55
2023-04-22T04:22:20.698Z,8.93
2023-04-22T04:22:44.620Z,8.65
2023-04-22T04:23:08.083Z,9.18
2023-04-22T04:23:30.841Z,9.20
2023-04-22T04:23:53.620Z,8.75
2023-04-22T04:24:16.458Z,8.77
2023-04-22T04:24:42.398Z,8.90
2023-04-22T04:25:07.025Z,8.70
2023-04-22T04:25:37.860Z,8.70
2023-04-22T04:26:03.129Z,9.00
2023-04-22T04:26:27.595Z,8.48
2023-04-22T04:26:53.797Z,8.52
2023-04-22T04:27:16.655Z,8.02
2023-04-22T04:27:41.972Z,7.80
2023-04-22T04:28:05.342Z,7.85
2023-04-22T04:28:30.254Z,7.85
2023-04-22T04:28:53.653Z,8.05
2023-04-22T04:29:16.434Z,8.20
2023-04-22T04:29:39.945Z,7.90
2023-04-22T04:30:04.358Z,7.53
2023-04-22T04:30:27.291Z,7.70
2023-04-22T04:30:50.118Z,7.30
2023-04-22T04:31:13.012Z,8.35
2023-04-22T04:31:35.905Z,8.27
2023-04-22T04:31:58.646Z,7.72
2023-04-22T04:32:22.020Z,7.50
2023-04-22T04:32:45.846Z,7.60
2023-04-22T04:33:08.983Z,7.72
2023-04-22T04:33:32.722Z,7.78
2023-04-22T04:33:57.884Z,7.43
2023-04-22T04:34:23.300Z,7.63
2023-04-22T04:34:46.017Z,7.35
2023-04-22T04:35:10.129Z,6.93
2023-04-22T04:35:34.668Z,7.18
2023-04-22T04:35:58.609Z,7.45
2023-04-22T04:36:21.356Z,7.35
2023-04-22T04:36:46.632Z,7.38
2023-04-22T04:37:09.568Z,7.63
2023-04-22T04:37:32.325Z,7.55
2023-04-22T04:37:56.220Z,7.20
2023-04-22T04:38:19.721Z,7.15
2023-04-22T04:38:42.761Z,7.55
2023-04-22T04:39:05.538Z,7.18
2023-04-22T04:39:28.838Z,7.72
2023-04-22T04:39:53.776Z,7.53
2023-04-22T04:40:16.817Z,7.32
2023-04-22T04:40:45.429Z,7.30
2023-04-22T04:41:10.598Z,7.18
2023-04-22T04:41:33.356Z,7.40
2023-04-22T04:41:59.068Z,7.03
2023-04-22T04:42:24.642Z,7.22
2023-04-22T04:42:47.488Z,7.57
2023-04-22T04:43:10.239Z,7.28
2023-04-22T04:43:33.072Z,7.38
2023-04-22T04:43:56.457Z,7.35
2023-04-22T04:44:20.996Z,7.40
2023-04-22T04:44:43.780Z,6.60
2023-04-22T04:45:09.661Z,6.97
2023-04-22T04:45:32.571Z,7.25
2023-04-22T04:45:55.424Z,6.72
2023-04-22T04:46:18.409Z,7.32
2023-04-22T04:46:41.526Z,7.10
2023-04-22T04:47:05.658Z,7.53
2023-04-22T04:47:30.281Z,7.03
2023-04-22T04:47:53.147Z,6.97
2023-04-22T04:48:16.894Z,7.40
2023-04-22T04:48:42.445Z,6.90
2023-04-22T04:49:05.199Z,6.85
2023-04-22T04:49:30.680Z,7.18
2023-04-22T04:49:54.744Z,7.28
2023-04-22T04:50:17.464Z,7.15
2023-04-22T04:50:42.478Z,6.90
2023-04-22T04:51:06.421Z,6.78
2023-04-22T04:51:29.169Z,6.90
2023-04-22T04:51:51.952Z,6.57
2023-04-22T04:52:14.631Z,6.38
2023-04-22T04:52:37.414Z,6.50
2023-04-22T04:53:00.205Z,6.70
2023-04-22T04:53:23.067Z,6.40
2023-04-22T04:53:45.994Z,6.28
2023-04-22T04:54:08.762Z,6.55
2023-04-22T04:54:31.502Z,6.40
2023-04-22T04:54:54.240Z,6.40
2023-04-22T04:55:17.287Z,6.43
2023-04-22T04:55:41.707Z,6.53
2023-04-22T04:56:04.785Z,6.50
2023-04-22T04:56:27.690Z,6.63
2023-04-22T04:56:50.497Z,6.63
2023-04-22T04:57:13.133Z,6.50
2023-04-22T04:57:38.266Z,6.57
2023-04-22T04:58:01.343Z,6.38
2023-04-22T04:58:24.179Z,6.20
2023-04-22T04:58:47.032Z,6.18
2023-04-22T04:59:09.949Z,6.40
2023-04-22T04:59:32.844Z,6.70
2023-04-22T04:59:55.838Z,6.75
2023-04-22T05:00:21.408Z,6.43
2023-04-22T05:00:44.270Z,6.68
2023-04-22T05:01:07.080Z,6.72
2023-04-22T05:01:29.903Z,6.78
2023-04-22T05:01:52.841Z,6.72
2023-04-22T05:02:15.768Z,6.32
2023-04-22T05:02:38.773Z,5.90
2023-04-22T05:03:01.845Z,6.25
2023-04-22T05:03:24.901Z,6.60
2023-04-22T05:03:48.198Z,6.15
2023-04-22T05:04:12.175Z,6.00
2023-04-22T05:04:35.245Z,6.15
2023-04-22T05:04:58.039Z,6.60